KSNY

Sidney Municipal / Lloyd W Carr Field Airport

Sidney, Nebraska, USA
KSNY 230520Z 2306/2406 29015KT P6SM FEW250 FM231200 29015G25KT P6SM BKN250 FM231700 31028G38KT P6SM BKN250 FM240000 33012KT P6SM SCT040 BKN100
Issued Valid From Valid To
Jan-23 @ 05:20 UTC
(2 hours ago)
Jan-23 @ 06:00 UTC
(2 hours ago)
Jan-24 @ 06:00 UTC
(in 22 hours)
Jan-23 @ 06:00 to Jan-23 @ 12:00
KSNY 230520Z 2306/2406 29015KT P6SM FEW250
Wind Visibility Clouds
290° at 15 knots Greater than 6 miles
  • Few at 25,000' AGL
From Jan-23 @ 12:00 to Jan-23 @ 17:00
FM231200 29015G25KT P6SM BKN250
Wind Visibility Clouds
290° at 15 knots
 Gusting to 25 knots
Greater than 6 miles
  • Broken at 25,000' AGL
From Jan-23 @ 17:00 to Jan-24 @ 00:00
FM231700 31028G38KT P6SM BKN250
Wind Visibility Clouds
310° at 28 knots
 Gusting to 38 knots
Greater than 6 miles
  • Broken at 25,000' AGL
From Jan-24 @ 00:00 to Jan-24 @ 06:00
FM240000 33012KT P6SM SCT040 BKN100
Wind Visibility Clouds
330° at 12 knots Greater than 6 miles
  • Scattered at 4,000' AGL
  • Broken at 10,000' AGL
KSNY 230520Z 2306/2406 29015KT P6SM FEW250 FM231200 29015G25KT P6SM BKN250 FM231700 31028G38KT P6SM BKN250 FM240000 33012KT P6SM SCT040 BKN100
Issued Jan-23 @ 05:20 UTC
(2 hours ago)
Valid From Jan-23 @ 06:00 UTC
(2 hours ago)
Valid To Jan-24 @ 06:00 UTC
(in 22 hours)
Jan-23 @ 06:00 - Jan-23 @ 12:00
Wind Visibility
290° at 15 knots Greater than 6 miles
Clouds
  • Few at 25,000' AGL
From Jan-23 @ 12:00 - Jan-23 @ 17:00
Wind Visibility
290° at 15 knots
 Gusting to 25 knots
Greater than 6 miles
Clouds
  • Broken at 25,000' AGL
From Jan-23 @ 17:00 - Jan-24 @ 00:00
Wind Visibility
310° at 28 knots
 Gusting to 38 knots
Greater than 6 miles
Clouds
  • Broken at 25,000' AGL
From Jan-24 @ 00:00 - Jan-24 @ 06:00
Wind Visibility
330° at 12 knots Greater than 6 miles
Clouds
  • Scattered at 4,000' AGL
  • Broken at 10,000' AGL